sensor_id;sensor_type;location;lat;lon;timestamp;P1;durP1;ratioP1;P2;durP2;ratioP2
2404;SDS011;1213;43.206;27.922;2023-10-31T00:01:19;27.33;;;14.67;;
2404;SDS011;1213;43.206;27.922;2023-10-31T00:03:45;26.30;;;14.57;;
2404;SDS011;1213;43.206;27.922;2023-10-31T00:06:10;27.77;;;14.10;;
2404;SDS011;1213;43.206;27.922;2023-10-31T00:08:35;25.30;;;14.63;;
2404;SDS011;1213;43.206;27.922;2023-10-31T00:11:01;27.40;;;13.90;;
2404;SDS011;1213;43.206;27.922;2023-10-31T00:13:26;25.60;;;12.00;;
2404;SDS011;1213;43.206;27.922;2023-10-31T00:15:51;22.83;;;11.80;;
2404;SDS011;1213;43.206;27.922;2023-10-31T00:18:16;22.63;;;12.00;;
2404;SDS011;1213;43.206;27.922;2023-10-31T00:20:42;23.10;;;12.20;;
2404;SDS011;1213;43.206;27.922;2023-10-31T00:23:07;25.30;;;12.70;;
2404;SDS011;1213;43.206;27.922;2023-10-31T00:25:32;16.10;;;9.43;;
2404;SDS011;1213;43.206;27.922;2023-10-31T00:27:58;18.37;;;11.47;;
2404;SDS011;1213;43.206;27.922;2023-10-31T00:30:23;18.30;;;10.30;;
2404;SDS011;1213;43.206;27.922;2023-10-31T00:32:48;23.53;;;11.80;;
2404;SDS011;1213;43.206;27.922;2023-10-31T00:35:13;18.23;;;10.90;;
2404;SDS011;1213;43.206;27.922;2023-10-31T00:37:39;15.47;;;8.97;;
2404;SDS011;1213;43.206;27.922;2023-10-31T00:40:05;13.23;;;8.03;;
2404;SDS011;1213;43.206;27.922;2023-10-31T00:42:31;16.43;;;8.97;;
2404;SDS011;1213;43.206;27.922;2023-10-31T00:44:56;16.30;;;8.73;;
2404;SDS011;1213;43.206;27.922;2023-10-31T00:47:22;19.37;;;9.33;;
2404;SDS011;1213;43.206;27.922;2023-10-31T00:49:47;18.13;;;10.07;;
2404;SDS011;1213;43.206;27.922;2023-10-31T00:52:12;17.13;;;9.90;;
2404;SDS011;1213;43.206;27.922;2023-10-31T00:54:37;16.93;;;9.77;;
2404;SDS011;1213;43.206;27.922;2023-10-31T00:57:03;17.17;;;10.73;;
2404;SDS011;1213;43.206;27.922;2023-10-31T00:59:28;18.77;;;10.10;;
2404;SDS011;1213;43.206;27.922;2023-10-31T01:01:53;16.80;;;10.13;;
2404;SDS011;1213;43.206;27.922;2023-10-31T01:04:18;17.70;;;10.63;;
2404;SDS011;1213;43.206;27.922;2023-10-31T01:06:44;18.53;;;10.20;;
2404;SDS011;1213;43.206;27.922;2023-10-31T01:09:09;13.63;;;9.70;;
2404;SDS011;1213;43.206;27.922;2023-10-31T01:11:35;19.00;;;9.10;;
2404;SDS011;1213;43.206;27.922;2023-10-31T01:14:00;22.13;;;9.97;;
2404;SDS011;1213;43.206;27.922;2023-10-31T01:16:25;29.23;;;11.53;;
2404;SDS011;1213;43.206;27.922;2023-10-31T01:18:50;22.33;;;12.57;;
2404;SDS011;1213;43.206;27.922;2023-10-31T01:21:16;19.23;;;11.23;;
2404;SDS011;1213;43.206;27.922;2023-10-31T01:23:41;22.77;;;13.33;;
2404;SDS011;1213;43.206;27.922;2023-10-31T01:26:06;21.77;;;10.10;;
2404;SDS011;1213;43.206;27.922;2023-10-31T01:28:32;23.43;;;11.67;;
2404;SDS011;1213;43.206;27.922;2023-10-31T01:30:57;16.20;;;10.23;;
2404;SDS011;1213;43.206;27.922;2023-10-31T01:33:22;19.73;;;9.73;;
2404;SDS011;1213;43.206;27.922;2023-10-31T01:35:47;18.00;;;10.90;;
2404;SDS011;1213;43.206;27.922;2023-10-31T01:38:13;17.17;;;8.80;;
2404;SDS011;1213;43.206;27.922;2023-10-31T01:40:38;21.03;;;10.00;;
2404;SDS011;1213;43.206;27.922;2023-10-31T01:43:03;18.27;;;10.50;;
2404;SDS011;1213;43.206;27.922;2023-10-31T01:45:28;13.40;;;9.33;;
2404;SDS011;1213;43.206;27.922;2023-10-31T01:47:54;19.00;;;10.17;;
2404;SDS011;1213;43.206;27.922;2023-10-31T01:50:19;17.13;;;9.70;;
2404;SDS011;1213;43.206;27.922;2023-10-31T01:52:45;15.20;;;10.00;;
2404;SDS011;1213;43.206;27.922;2023-10-31T01:55:10;18.60;;;10.93;;
2404;SDS011;1213;43.206;27.922;2023-10-31T01:57:37;21.80;;;12.20;;
2404;SDS011;1213;43.206;27.922;2023-10-31T02:00:02;21.97;;;10.93;;
2404;SDS011;1213;43.206;27.922;2023-10-31T02:02:27;18.23;;;9.30;;
2404;SDS011;1213;43.206;27.922;2023-10-31T02:04:54;26.93;;;11.23;;
2404;SDS011;1213;43.206;27.922;2023-10-31T02:07:19;30.70;;;11.33;;
2404;SDS011;1213;43.206;27.922;2023-10-31T02:09:45;17.53;;;11.53;;
2404;SDS011;1213;43.206;27.922;2023-10-31T02:12:10;27.43;;;11.70;;
2404;SDS011;1213;43.206;27.922;2023-10-31T02:14:35;27.03;;;10.60;;
2404;SDS011;1213;43.206;27.922;2023-10-31T02:17:00;23.10;;;11.70;;
2404;SDS011;1213;43.206;27.922;2023-10-31T02:19:26;21.60;;;11.93;;
2404;SDS011;1213;43.206;27.922;2023-10-31T02:21:51;27.20;;;13.57;;
2404;SDS011;1213;43.206;27.922;2023-10-31T02:24:16;28.20;;;13.40;;
2404;SDS011;1213;43.206;27.922;2023-10-31T02:26:41;27.47;;;12.70;;
2404;SDS011;1213;43.206;27.922;2023-10-31T02:29:07;25.90;;;13.93;;
2404;SDS011;1213;43.206;27.922;2023-10-31T02:31:32;24.17;;;12.60;;
2404;SDS011;1213;43.206;27.922;2023-10-31T02:33:57;21.40;;;11.80;;
2404;SDS011;1213;43.206;27.922;2023-10-31T02:36:23;19.20;;;12.90;;
2404;SDS011;1213;43.206;27.922;2023-10-31T02:38:48;25.80;;;13.07;;
2404;SDS011;1213;43.206;27.922;2023-10-31T02:41:13;21.77;;;12.47;;
2404;SDS011;1213;43.206;27.922;2023-10-31T02:43:39;27.27;;;13.30;;
2404;SDS011;1213;43.206;27.922;2023-10-31T02:46:05;30.10;;;14.37;;
2404;SDS011;1213;43.206;27.922;2023-10-31T02:48:30;24.00;;;14.40;;
2404;SDS011;1213;43.206;27.922;2023-10-31T02:51:04;25.17;;;13.63;;
2404;SDS011;1213;43.206;27.922;2023-10-31T02:53:30;23.40;;;12.70;;
2404;SDS011;1213;43.206;27.922;2023-10-31T02:55:55;22.67;;;13.37;;
2404;SDS011;1213;43.206;27.922;2023-10-31T02:58:20;26.40;;;13.70;;
2404;SDS011;1213;43.206;27.922;2023-10-31T03:00:46;22.57;;;12.97;;
2404;SDS011;1213;43.206;27.922;2023-10-31T03:03:11;27.60;;;13.63;;
2404;SDS011;1213;43.206;27.922;2023-10-31T03:05:36;25.97;;;14.50;;
2404;SDS011;1213;43.206;27.922;2023-10-31T03:08:01;24.40;;;13.30;;
2404;SDS011;1213;43.206;27.922;2023-10-31T03:10:27;26.03;;;14.40;;
2404;SDS011;1213;43.206;27.922;2023-10-31T03:12:52;19.83;;;11.73;;
2404;SDS011;1213;43.206;27.922;2023-10-31T03:15:17;16.90;;;10.37;;
2404;SDS011;1213;43.206;27.922;2023-10-31T03:17:43;20.10;;;12.40;;
2404;SDS011;1213;43.206;27.922;2023-10-31T03:20:08;20.50;;;12.00;;
2404;SDS011;1213;43.206;27.922;2023-10-31T03:22:35;19.30;;;11.83;;
2404;SDS011;1213;43.206;27.922;2023-10-31T03:25:00;23.67;;;13.33;;
2404;SDS011;1213;43.206;27.922;2023-10-31T03:27:26;20.07;;;12.63;;
2404;SDS011;1213;43.206;27.922;2023-10-31T03:29:51;23.67;;;11.97;;
2404;SDS011;1213;43.206;27.922;2023-10-31T03:32:16;22.37;;;12.80;;
2404;SDS011;1213;43.206;27.922;2023-10-31T03:34:42;20.80;;;14.70;;
2404;SDS011;1213;43.206;27.922;2023-10-31T03:37:08;23.40;;;11.60;;
2404;SDS011;1213;43.206;27.922;2023-10-31T03:39:33;27.47;;;12.53;;
2404;SDS011;1213;43.206;27.922;2023-10-31T03:41:59;18.73;;;11.90;;
2404;SDS011;1213;43.206;27.922;2023-10-31T03:44:25;21.93;;;12.00;;
2404;SDS011;1213;43.206;27.922;2023-10-31T03:46:51;18.73;;;11.37;;
2404;SDS011;1213;43.206;27.922;2023-10-31T03:49:16;13.43;;;10.73;;
2404;SDS011;1213;43.206;27.922;2023-10-31T03:51:41;15.67;;;11.53;;
2404;SDS011;1213;43.206;27.922;2023-10-31T03:54:07;18.40;;;12.33;;
2404;SDS011;1213;43.206;27.922;2023-10-31T03:56:42;18.70;;;11.67;;
2404;SDS011;1213;43.206;27.922;2023-10-31T03:59:08;16.60;;;11.83;;
2404;SDS011;1213;43.206;27.922;2023-10-31T04:01:33;15.60;;;12.63;;
2404;SDS011;1213;43.206;27.922;2023-10-31T04:03:59;19.00;;;10.90;;
2404;SDS011;1213;43.206;27.922;2023-10-31T04:06:24;19.43;;;10.77;;
2404;SDS011;1213;43.206;27.922;2023-10-31T04:08:49;17.27;;;11.73;;
2404;SDS011;1213;43.206;27.922;2023-10-31T04:11:15;16.00;;;11.70;;
2404;SDS011;1213;43.206;27.922;2023-10-31T04:13:40;17.43;;;12.60;;
2404;SDS011;1213;43.206;27.922;2023-10-31T04:16:05;17.43;;;11.07;;
2404;SDS011;1213;43.206;27.922;2023-10-31T04:18:31;15.13;;;11.40;;
2404;SDS011;1213;43.206;27.922;2023-10-31T04:20:56;15.73;;;9.67;;
2404;SDS011;1213;43.206;27.922;2023-10-31T04:23:21;13.73;;;10.10;;
2404;SDS011;1213;43.206;27.922;2023-10-31T04:25:46;12.13;;;10.80;;
2404;SDS011;1213;43.206;27.922;2023-10-31T04:28:12;15.93;;;9.47;;
2404;SDS011;1213;43.206;27.922;2023-10-31T04:30:39;15.27;;;10.57;;
2404;SDS011;1213;43.206;27.922;2023-10-31T04:33:05;18.73;;;11.10;;
2404;SDS011;1213;43.206;27.922;2023-10-31T04:35:30;18.50;;;10.67;;
2404;SDS011;1213;43.206;27.922;2023-10-31T04:37:56;15.00;;;10.40;;
2404;SDS011;1213;43.206;27.922;2023-10-31T04:40:22;16.87;;;11.30;;
2404;SDS011;1213;43.206;27.922;2023-10-31T04:42:48;13.67;;;11.17;;
2404;SDS011;1213;43.206;27.922;2023-10-31T04:45:13;16.70;;;9.73;;
2404;SDS011;1213;43.206;27.922;2023-10-31T04:47:40;18.00;;;10.47;;
2404;SDS011;1213;43.206;27.922;2023-10-31T04:50:05;17.13;;;11.00;;
2404;SDS011;1213;43.206;27.922;2023-10-31T04:52:31;14.40;;;10.10;;
2404;SDS011;1213;43.206;27.922;2023-10-31T04:54:56;18.63;;;11.13;;
2404;SDS011;1213;43.206;27.922;2023-10-31T04:57:21;21.13;;;10.20;;
2404;SDS011;1213;43.206;27.922;2023-10-31T04:59:47;14.23;;;10.87;;
2404;SDS011;1213;43.206;27.922;2023-10-31T05:02:12;17.87;;;11.70;;
2404;SDS011;1213;43.206;27.922;2023-10-31T05:04:38;22.00;;;11.63;;
2404;SDS011;1213;43.206;27.922;2023-10-31T05:07:05;14.17;;;11.33;;
2404;SDS011;1213;43.206;27.922;2023-10-31T05:09:31;15.53;;;10.77;;
2404;SDS011;1213;43.206;27.922;2023-10-31T05:11:56;17.80;;;10.13;;
2404;SDS011;1213;43.206;27.922;2023-10-31T05:14:21;12.00;;;9.13;;
2404;SDS011;1213;43.206;27.922;2023-10-31T05:16:46;10.50;;;8.70;;
2404;SDS011;1213;43.206;27.922;2023-10-31T05:19:12;15.07;;;10.60;;
2404;SDS011;1213;43.206;27.922;2023-10-31T05:21:37;21.70;;;11.33;;
2404;SDS011;1213;43.206;27.922;2023-10-31T05:24:03;16.37;;;10.33;;
2404;SDS011;1213;43.206;27.922;2023-10-31T05:26:28;19.40;;;11.90;;
2404;SDS011;1213;43.206;27.922;2023-10-31T05:28:54;21.43;;;10.90;;
2404;SDS011;1213;43.206;27.922;2023-10-31T05:31:20;19.43;;;12.70;;
2404;SDS011;1213;43.206;27.922;2023-10-31T05:33:45;19.50;;;11.40;;
2404;SDS011;1213;43.206;27.922;2023-10-31T05:36:20;16.90;;;10.20;;
2404;SDS011;1213;43.206;27.922;2023-10-31T05:38:45;22.63;;;12.10;;
2404;SDS011;1213;43.206;27.922;2023-10-31T05:41:11;17.30;;;10.60;;
2404;SDS011;1213;43.206;27.922;2023-10-31T05:43:36;17.30;;;12.00;;
2404;SDS011;1213;43.206;27.922;2023-10-31T05:46:01;17.93;;;10.30;;
2404;SDS011;1213;43.206;27.922;2023-10-31T05:48:26;22.50;;;10.37;;
2404;SDS011;1213;43.206;27.922;2023-10-31T05:50:52;12.63;;;9.30;;
2404;SDS011;1213;43.206;27.922;2023-10-31T05:53:17;13.70;;;8.60;;
2404;SDS011;1213;43.206;27.922;2023-10-31T05:55:42;9.20;;;7.97;;
2404;SDS011;1213;43.206;27.922;2023-10-31T05:58:07;11.27;;;7.60;;
2404;SDS011;1213;43.206;27.922;2023-10-31T06:00:33;13.47;;;8.77;;
2404;SDS011;1213;43.206;27.922;2023-10-31T06:02:58;10.30;;;7.23;;
2404;SDS011;1213;43.206;27.922;2023-10-31T06:05:23;6.97;;;6.23;;
2404;SDS011;1213;43.206;27.922;2023-10-31T06:07:49;9.97;;;7.10;;
2404;SDS011;1213;43.206;27.922;2023-10-31T06:10:14;16.20;;;8.17;;
2404;SDS011;1213;43.206;27.922;2023-10-31T06:12:39;14.33;;;8.67;;
2404;SDS011;1213;43.206;27.922;2023-10-31T06:15:05;10.07;;;7.30;;
2404;SDS011;1213;43.206;27.922;2023-10-31T06:17:30;11.07;;;7.47;;
2404;SDS011;1213;43.206;27.922;2023-10-31T06:19:58;8.43;;;7.60;;
2404;SDS011;1213;43.206;27.922;2023-10-31T06:22:24;13.30;;;9.10;;
2404;SDS011;1213;43.206;27.922;2023-10-31T06:24:49;8.60;;;7.33;;
2404;SDS011;1213;43.206;27.922;2023-10-31T06:27:14;8.03;;;7.20;;
2404;SDS011;1213;43.206;27.922;2023-10-31T06:29:40;7.93;;;6.70;;
2404;SDS011;1213;43.206;27.922;2023-10-31T06:32:05;7.77;;;6.90;;
2404;SDS011;1213;43.206;27.922;2023-10-31T06:34:31;14.50;;;8.40;;
2404;SDS011;1213;43.206;27.922;2023-10-31T06:36:56;9.43;;;6.53;;
2404;SDS011;1213;43.206;27.922;2023-10-31T06:39:21;9.00;;;7.13;;
2404;SDS011;1213;43.206;27.922;2023-10-31T06:41:48;12.30;;;8.00;;
2404;SDS011;1213;43.206;27.922;2023-10-31T06:44:13;9.37;;;5.90;;
2404;SDS011;1213;43.206;27.922;2023-10-31T06:46:38;13.37;;;6.90;;
2404;SDS011;1213;43.206;27.922;2023-10-31T06:49:04;11.90;;;6.90;;
2404;SDS011;1213;43.206;27.922;2023-10-31T06:51:29;10.13;;;7.53;;
2404;SDS011;1213;43.206;27.922;2023-10-31T06:53:54;7.53;;;6.07;;
2404;SDS011;1213;43.206;27.922;2023-10-31T06:56:20;8.30;;;5.90;;
2404;SDS011;1213;43.206;27.922;2023-10-31T06:58:45;9.00;;;6.10;;
2404;SDS011;1213;43.206;27.922;2023-10-31T07:01:11;7.47;;;5.97;;
2404;SDS011;1213;43.206;27.922;2023-10-31T07:03:37;12.87;;;7.47;;
2404;SDS011;1213;43.206;27.922;2023-10-31T07:06:02;7.73;;;6.70;;
2404;SDS011;1213;43.206;27.922;2023-10-31T07:08:34;7.77;;;6.30;;
2404;SDS011;1213;43.206;27.922;2023-10-31T07:10:59;9.30;;;6.40;;
2404;SDS011;1213;43.206;27.922;2023-10-31T07:13:26;8.50;;;6.03;;
2404;SDS011;1213;43.206;27.922;2023-10-31T07:15:52;11.43;;;7.27;;
2404;SDS011;1213;43.206;27.922;2023-10-31T07:18:18;16.83;;;6.80;;
2404;SDS011;1213;43.206;27.922;2023-10-31T07:20:44;8.93;;;6.23;;
2404;SDS011;1213;43.206;27.922;2023-10-31T07:23:09;6.87;;;6.17;;
2404;SDS011;1213;43.206;27.922;2023-10-31T07:25:34;41.53;;;27.13;;
2404;SDS011;1213;43.206;27.922;2023-10-31T07:28:00;7.50;;;5.63;;
2404;SDS011;1213;43.206;27.922;2023-10-31T07:30:25;8.83;;;6.00;;
2404;SDS011;1213;43.206;27.922;2023-10-31T07:32:50;14.43;;;6.17;;
2404;SDS011;1213;43.206;27.922;2023-10-31T07:35:16;7.20;;;5.93;;
2404;SDS011;1213;43.206;27.922;2023-10-31T07:37:41;11.40;;;6.83;;
2404;SDS011;1213;43.206;27.922;2023-10-31T07:40:06;9.50;;;5.70;;
2404;SDS011;1213;43.206;27.922;2023-10-31T07:42:34;6.60;;;5.60;;
2404;SDS011;1213;43.206;27.922;2023-10-31T07:45:00;9.90;;;5.87;;
2404;SDS011;1213;43.206;27.922;2023-10-31T07:47:25;8.13;;;5.93;;
2404;SDS011;1213;43.206;27.922;2023-10-31T07:49:50;10.70;;;6.80;;
2404;SDS011;1213;43.206;27.922;2023-10-31T07:52:16;8.50;;;5.63;;
2404;SDS011;1213;43.206;27.922;2023-10-31T07:54:41;8.67;;;6.00;;
2404;SDS011;1213;43.206;27.922;2023-10-31T07:57:06;8.00;;;6.93;;
2404;SDS011;1213;43.206;27.922;2023-10-31T07:59:35;6.60;;;5.90;;
2404;SDS011;1213;43.206;27.922;2023-10-31T08:02:00;5.87;;;4.93;;
2404;SDS011;1213;43.206;27.922;2023-10-31T08:04:26;5.47;;;4.50;;
2404;SDS011;1213;43.206;27.922;2023-10-31T08:06:53;7.20;;;6.03;;
2404;SDS011;1213;43.206;27.922;2023-10-31T08:09:19;10.87;;;6.53;;
2404;SDS011;1213;43.206;27.922;2023-10-31T08:11:44;6.30;;;5.50;;
2404;SDS011;1213;43.206;27.922;2023-10-31T08:14:10;7.67;;;5.40;;
2404;SDS011;1213;43.206;27.922;2023-10-31T08:16:35;6.50;;;5.70;;
2404;SDS011;1213;43.206;27.922;2023-10-31T08:19:01;7.70;;;5.90;;
2404;SDS011;1213;43.206;27.922;2023-10-31T08:21:27;9.60;;;5.60;;
2404;SDS011;1213;43.206;27.922;2023-10-31T08:23:58;7.17;;;6.57;;
2404;SDS011;1213;43.206;27.922;2023-10-31T08:26:23;6.13;;;5.53;;
2404;SDS011;1213;43.206;27.922;2023-10-31T08:28:48;14.80;;;6.50;;
2404;SDS011;1213;43.206;27.922;2023-10-31T08:31:14;6.57;;;4.93;;
2404;SDS011;1213;43.206;27.922;2023-10-31T08:33:42;11.10;;;8.00;;
2404;SDS011;1213;43.206;27.922;2023-10-31T08:36:08;6.27;;;4.73;;
2404;SDS011;1213;43.206;27.922;2023-10-31T08:38:33;9.97;;;5.50;;
2404;SDS011;1213;43.206;27.922;2023-10-31T08:41:00;7.20;;;5.30;;
2404;SDS011;1213;43.206;27.922;2023-10-31T08:43:25;7.20;;;4.90;;
2404;SDS011;1213;43.206;27.922;2023-10-31T08:45:54;7.23;;;5.70;;
2404;SDS011;1213;43.206;27.922;2023-10-31T08:48:19;7.00;;;5.90;;
2404;SDS011;1213;43.206;27.922;2023-10-31T08:50:45;5.30;;;4.77;;
2404;SDS011;1213;43.206;27.922;2023-10-31T08:53:11;9.23;;;5.23;;
2404;SDS011;1213;43.206;27.922;2023-10-31T08:55:36;5.37;;;4.87;;
2404;SDS011;1213;43.206;27.922;2023-10-31T08:58:01;11.53;;;6.97;;
2404;SDS011;1213;43.206;27.922;2023-10-31T09:00:27;4.93;;;4.43;;
2404;SDS011;1213;43.206;27.922;2023-10-31T09:02:53;6.43;;;4.97;;
2404;SDS011;1213;43.206;27.922;2023-10-31T09:05:19;5.07;;;4.57;;
2404;SDS011;1213;43.206;27.922;2023-10-31T09:07:44;10.80;;;5.70;;
2404;SDS011;1213;43.206;27.922;2023-10-31T09:10:11;5.63;;;5.13;;
2404;SDS011;1213;43.206;27.922;2023-10-31T09:12:37;7.73;;;5.27;;
2404;SDS011;1213;43.206;27.922;2023-10-31T09:15:03;6.20;;;5.30;;
2404;SDS011;1213;43.206;27.922;2023-10-31T09:17:28;8.50;;;5.20;;
2404;SDS011;1213;43.206;27.922;2023-10-31T09:19:53;6.33;;;4.60;;
2404;SDS011;1213;43.206;27.922;2023-10-31T09:22:19;8.23;;;4.70;;
2404;SDS011;1213;43.206;27.922;2023-10-31T09:24:45;7.53;;;4.63;;
2404;SDS011;1213;43.206;27.922;2023-10-31T09:27:10;7.80;;;5.53;;
2404;SDS011;1213;43.206;27.922;2023-10-31T09:29:36;9.27;;;4.80;;
2404;SDS011;1213;43.206;27.922;2023-10-31T09:32:01;8.73;;;5.90;;
2404;SDS011;1213;43.206;27.922;2023-10-31T09:34:27;7.70;;;4.23;;
2404;SDS011;1213;43.206;27.922;2023-10-31T09:36:52;9.17;;;5.80;;
2404;SDS011;1213;43.206;27.922;2023-10-31T09:39:18;6.57;;;5.83;;
2404;SDS011;1213;43.206;27.922;2023-10-31T09:41:44;9.23;;;4.50;;
2404;SDS011;1213;43.206;27.922;2023-10-31T09:44:10;7.47;;;5.00;;
2404;SDS011;1213;43.206;27.922;2023-10-31T09:46:36;12.10;;;5.23;;
2404;SDS011;1213;43.206;27.922;2023-10-31T09:49:03;5.70;;;4.43;;
2404;SDS011;1213;43.206;27.922;2023-10-31T09:51:30;5.53;;;5.03;;
2404;SDS011;1213;43.206;27.922;2023-10-31T09:53:55;6.53;;;5.40;;
2404;SDS011;1213;43.206;27.922;2023-10-31T09:56:22;5.83;;;5.20;;
2404;SDS011;1213;43.206;27.922;2023-10-31T09:58:47;5.50;;;4.60;;
2404;SDS011;1213;43.206;27.922;2023-10-31T10:01:14;6.73;;;5.00;;
2404;SDS011;1213;43.206;27.922;2023-10-31T10:03:40;5.73;;;4.10;;
2404;SDS011;1213;43.206;27.922;2023-10-31T10:09:07;8.07;;;7.30;;
2404;SDS011;1213;43.206;27.922;2023-10-31T10:11:34;6.70;;;5.53;;
2404;SDS011;1213;43.206;27.922;2023-10-31T10:14:00;7.07;;;5.77;;
2404;SDS011;1213;43.206;27.922;2023-10-31T10:16:31;8.00;;;5.40;;
2404;SDS011;1213;43.206;27.922;2023-10-31T10:18:56;10.53;;;8.40;;
2404;SDS011;1213;43.206;27.922;2023-10-31T10:21:22;5.73;;;5.00;;
2404;SDS011;1213;43.206;27.922;2023-10-31T10:23:47;7.77;;;6.93;;
2404;SDS011;1213;43.206;27.922;2023-10-31T10:26:15;9.27;;;7.00;;
2404;SDS011;1213;43.206;27.922;2023-10-31T10:28:41;5.87;;;5.27;;
2404;SDS011;1213;43.206;27.922;2023-10-31T10:31:06;5.90;;;5.40;;
2404;SDS011;1213;43.206;27.922;2023-10-31T10:33:33;8.37;;;5.73;;
2404;SDS011;1213;43.206;27.922;2023-10-31T10:35:58;8.37;;;5.47;;
2404;SDS011;1213;43.206;27.922;2023-10-31T10:38:24;8.63;;;5.20;;
2404;SDS011;1213;43.206;27.922;2023-10-31T10:40:50;6.97;;;6.00;;
2404;SDS011;1213;43.206;27.922;2023-10-31T10:43:22;8.70;;;5.37;;
2404;SDS011;1213;43.206;27.922;2023-10-31T10:45:55;5.00;;;4.53;;
2404;SDS011;1213;43.206;27.922;2023-10-31T10:48:21;7.70;;;5.40;;
2404;SDS011;1213;43.206;27.922;2023-10-31T10:50:48;6.80;;;4.87;;
2404;SDS011;1213;43.206;27.922;2023-10-31T10:53:22;6.30;;;5.70;;
2404;SDS011;1213;43.206;27.922;2023-10-31T10:55:51;12.57;;;4.97;;
2404;SDS011;1213;43.206;27.922;2023-10-31T10:58:26;8.57;;;6.03;;
2404;SDS011;1213;43.206;27.922;2023-10-31T11:00:52;6.00;;;4.90;;
2404;SDS011;1213;43.206;27.922;2023-10-31T11:03:19;5.00;;;4.47;;
2404;SDS011;1213;43.206;27.922;2023-10-31T11:05:46;8.37;;;6.00;;
2404;SDS011;1213;43.206;27.922;2023-10-31T11:08:11;8.70;;;5.10;;
2404;SDS011;1213;43.206;27.922;2023-10-31T11:10:36;6.17;;;5.50;;
2404;SDS011;1213;43.206;27.922;2023-10-31T11:13:02;6.67;;;5.97;;
2404;SDS011;1213;43.206;27.922;2023-10-31T11:15:28;9.50;;;5.87;;
2404;SDS011;1213;43.206;27.922;2023-10-31T11:17:54;5.77;;;5.27;;
2404;SDS011;1213;43.206;27.922;2023-10-31T11:20:20;5.90;;;4.93;;
2404;SDS011;1213;43.206;27.922;2023-10-31T11:22:46;7.43;;;5.97;;
2404;SDS011;1213;43.206;27.922;2023-10-31T11:25:23;13.00;;;8.53;;
2404;SDS011;1213;43.206;27.922;2023-10-31T11:27:54;8.73;;;5.23;;
2404;SDS011;1213;43.206;27.922;2023-10-31T11:30:26;8.00;;;6.80;;
2404;SDS011;1213;43.206;27.922;2023-10-31T11:32:52;10.40;;;8.67;;
2404;SDS011;1213;43.206;27.922;2023-10-31T11:35:19;11.73;;;8.00;;
2404;SDS011;1213;43.206;27.922;2023-10-31T11:37:49;8.93;;;6.00;;
2404;SDS011;1213;43.206;27.922;2023-10-31T11:40:24;5.80;;;4.87;;
2404;SDS011;1213;43.206;27.922;2023-10-31T11:42:53;11.83;;;5.57;;
2404;SDS011;1213;43.206;27.922;2023-10-31T11:48:02;10.20;;;5.10;;
2404;SDS011;1213;43.206;27.922;2023-10-31T11:50:29;9.43;;;5.10;;
2404;SDS011;1213;43.206;27.922;2023-10-31T11:53:04;7.33;;;6.63;;
2404;SDS011;1213;43.206;27.922;2023-10-31T11:55:32;10.13;;;9.10;;
2404;SDS011;1213;43.206;27.922;2023-10-31T12:00:38;6.10;;;5.03;;
2404;SDS011;1213;43.206;27.922;2023-10-31T12:03:03;6.03;;;4.90;;
2404;SDS011;1213;43.206;27.922;2023-10-31T12:05:28;7.40;;;6.60;;
2404;SDS011;1213;43.206;27.922;2023-10-31T12:07:55;10.97;;;7.50;;
2404;SDS011;1213;43.206;27.922;2023-10-31T12:12:49;10.30;;;6.10;;
2404;SDS011;1213;43.206;27.922;2023-10-31T12:15:15;8.33;;;5.37;;
2404;SDS011;1213;43.206;27.922;2023-10-31T12:17:40;12.27;;;5.13;;
2404;SDS011;1213;43.206;27.922;2023-10-31T12:20:06;7.30;;;5.87;;
2404;SDS011;1213;43.206;27.922;2023-10-31T12:22:32;6.13;;;4.90;;
2404;SDS011;1213;43.206;27.922;2023-10-31T12:25:03;7.40;;;5.33;;
2404;SDS011;1213;43.206;27.922;2023-10-31T12:27:42;5.93;;;4.90;;
2404;SDS011;1213;43.206;27.922;2023-10-31T12:30:08;5.70;;;5.00;;
2404;SDS011;1213;43.206;27.922;2023-10-31T12:32:34;7.80;;;6.13;;
2404;SDS011;1213;43.206;27.922;2023-10-31T12:34:59;8.43;;;5.50;;
2404;SDS011;1213;43.206;27.922;2023-10-31T12:37:24;8.20;;;4.83;;
2404;SDS011;1213;43.206;27.922;2023-10-31T12:39:50;5.80;;;5.07;;
2404;SDS011;1213;43.206;27.922;2023-10-31T12:42:19;9.33;;;5.77;;
2404;SDS011;1213;43.206;27.922;2023-10-31T12:44:45;8.70;;;6.27;;
2404;SDS011;1213;43.206;27.922;2023-10-31T12:47:17;8.77;;;6.37;;
2404;SDS011;1213;43.206;27.922;2023-10-31T12:49:45;5.83;;;4.70;;
2404;SDS011;1213;43.206;27.922;2023-10-31T12:52:11;7.67;;;4.90;;
2404;SDS011;1213;43.206;27.922;2023-10-31T12:54:37;5.23;;;4.73;;
2404;SDS011;1213;43.206;27.922;2023-10-31T12:57:03;9.00;;;5.10;;
2404;SDS011;1213;43.206;27.922;2023-10-31T12:59:29;4.73;;;4.33;;
2404;SDS011;1213;43.206;27.922;2023-10-31T13:01:55;13.87;;;6.20;;
2404;SDS011;1213;43.206;27.922;2023-10-31T13:04:25;7.13;;;4.73;;
2404;SDS011;1213;43.206;27.922;2023-10-31T13:06:58;10.77;;;5.37;;
2404;SDS011;1213;43.206;27.922;2023-10-31T13:09:27;10.13;;;6.00;;
2404;SDS011;1213;43.206;27.922;2023-10-31T13:11:52;18.90;;;6.23;;
2404;SDS011;1213;43.206;27.922;2023-10-31T13:14:18;10.27;;;4.80;;
2404;SDS011;1213;43.206;27.922;2023-10-31T13:16:43;7.63;;;4.97;;
2404;SDS011;1213;43.206;27.922;2023-10-31T13:19:08;11.27;;;6.17;;
2404;SDS011;1213;43.206;27.922;2023-10-31T13:21:35;5.33;;;4.83;;
2404;SDS011;1213;43.206;27.922;2023-10-31T13:24:00;7.23;;;5.17;;
2404;SDS011;1213;43.206;27.922;2023-10-31T13:26:25;5.43;;;4.90;;
2404;SDS011;1213;43.206;27.922;2023-10-31T13:28:52;8.53;;;5.43;;
2404;SDS011;1213;43.206;27.922;2023-10-31T13:31:17;8.40;;;5.37;;
2404;SDS011;1213;43.206;27.922;2023-10-31T13:33:43;9.17;;;5.87;;
2404;SDS011;1213;43.206;27.922;2023-10-31T13:36:08;9.40;;;5.17;;
2404;SDS011;1213;43.206;27.922;2023-10-31T13:38:36;8.80;;;6.50;;
2404;SDS011;1213;43.206;27.922;2023-10-31T13:41:03;5.83;;;5.20;;
2404;SDS011;1213;43.206;27.922;2023-10-31T13:43:28;5.77;;;5.17;;
2404;SDS011;1213;43.206;27.922;2023-10-31T13:45:53;8.17;;;5.90;;
2404;SDS011;1213;43.206;27.922;2023-10-31T13:48:19;12.20;;;6.57;;
2404;SDS011;1213;43.206;27.922;2023-10-31T13:50:44;11.30;;;5.87;;
2404;SDS011;1213;43.206;27.922;2023-10-31T13:53:09;16.43;;;7.40;;
2404;SDS011;1213;43.206;27.922;2023-10-31T13:55:35;14.83;;;6.37;;
2404;SDS011;1213;43.206;27.922;2023-10-31T13:58:01;13.70;;;6.90;;
2404;SDS011;1213;43.206;27.922;2023-10-31T14:00:27;10.50;;;6.07;;
2404;SDS011;1213;43.206;27.922;2023-10-31T14:02:53;12.80;;;7.17;;
2404;SDS011;1213;43.206;27.922;2023-10-31T14:05:18;8.90;;;5.20;;
2404;SDS011;1213;43.206;27.922;2023-10-31T14:07:44;10.17;;;6.90;;
2404;SDS011;1213;43.206;27.922;2023-10-31T14:10:09;7.57;;;6.57;;
2404;SDS011;1213;43.206;27.922;2023-10-31T14:12:34;22.03;;;9.83;;
2404;SDS011;1213;43.206;27.922;2023-10-31T14:15:00;11.90;;;6.70;;
2404;SDS011;1213;43.206;27.922;2023-10-31T14:17:25;11.83;;;6.53;;
2404;SDS011;1213;43.206;27.922;2023-10-31T14:19:51;8.87;;;7.90;;
2404;SDS011;1213;43.206;27.922;2023-10-31T14:22:16;20.63;;;7.30;;
2404;SDS011;1213;43.206;27.922;2023-10-31T14:24:41;12.00;;;7.30;;
2404;SDS011;1213;43.206;27.922;2023-10-31T14:27:07;11.20;;;7.17;;
2404;SDS011;1213;43.206;27.922;2023-10-31T14:29:32;8.93;;;6.60;;
2404;SDS011;1213;43.206;27.922;2023-10-31T14:32:04;8.10;;;7.30;;
2404;SDS011;1213;43.206;27.922;2023-10-31T14:34:30;10.50;;;7.53;;
2404;SDS011;1213;43.206;27.922;2023-10-31T14:36:55;9.03;;;6.10;;
2404;SDS011;1213;43.206;27.922;2023-10-31T14:39:20;12.27;;;6.90;;
2404;SDS011;1213;43.206;27.922;2023-10-31T14:41:45;11.83;;;6.90;;
2404;SDS011;1213;43.206;27.922;2023-10-31T14:44:11;9.40;;;7.10;;
2404;SDS011;1213;43.206;27.922;2023-10-31T14:46:36;12.40;;;7.43;;
2404;SDS011;1213;43.206;27.922;2023-10-31T14:49:01;6.70;;;5.63;;
2404;SDS011;1213;43.206;27.922;2023-10-31T14:51:27;16.40;;;6.90;;